Time;durP1;ratioP1;P1;durP2;ratioP2;P2;SDS_P1;SDS_P2;PMS_P1;PMS_P2;Temp;Humidity;BMP_temperature;BMP_pressure;BME280_temperature;BME280_humidity;BME280_pressure;Samples;Min_cycle;Max_cycle;Signal;HPM_P1;HPM_P2
2022/12/18 00:00:46;;;;;;;0.40;0.40;;;2.10;99.90;;;;;;5115435;28;20197;-73
2022/12/18 00:03:15;;;;;;;0.47;0.45;;;2.10;99.90;;;;;;5115529;28;20187;-72
2022/12/18 00:05:51;;;;;;;0.30;0.30;;;2.10;99.90;;;;;;5116132;28;20207;-72
2022/12/18 00:08:17;;;;;;;0.47;0.47;;;2.10;99.90;;;;;;5116014;28;20183;-73
2022/12/18 00:10:43;;;;;;;0.55;0.55;;;2.10;99.90;;;;;;5097158;28;20223;-71
2022/12/18 00:13:10;;;;;;;0.75;0.75;;;2.10;99.90;;;;;;5115815;28;20703;-73
2022/12/18 00:15:38;;;;;;;1.00;0.95;;;2.10;99.90;;;;;;5097329;28;20208;-73
2022/12/18 00:18:04;;;;;;;0.22;0.22;;;2.10;99.90;;;;;;5097566;28;20219;-72
2022/12/18 00:20:30;;;;;;;0.35;0.35;;;2.10;99.90;;;;;;5097231;28;20699;-73
2022/12/18 00:22:56;;;;;;;0.50;0.50;;;2.10;99.90;;;;;;5115275;28;20221;-73
2022/12/18 00:25:22;;;;;;;0.30;0.30;;;2.10;99.90;;;;;;5115173;28;20215;-73
2022/12/18 00:27:48;;;;;;;0.25;0.25;;;2.10;99.90;;;;;;5115444;28;20191;-73
2022/12/18 00:30:14;;;;;;;0.20;0.20;;;2.10;99.90;;;;;;5115421;28;20191;-72
2022/12/18 00:32:40;;;;;;;0.30;0.30;;;2.00;99.90;;;;;;5115174;28;20192;-73
2022/12/18 00:35:07;;;;;;;0.28;0.28;;;2.00;99.90;;;;;;5115373;28;20744;-73
2022/12/18 00:37:35;;;;;;;0.22;0.22;;;2.00;99.90;;;;;;5115277;28;20191;-74
2022/12/18 00:40:01;;;;;;;0.30;0.30;;;2.00;99.90;;;;;;5095964;28;20199;-74
2022/12/18 00:45:11;;;;;;;0.30;0.30;;;1.90;99.90;;;;;;5115371;28;20206;-74
2022/12/18 00:47:37;;;;;;;0.30;0.30;;;1.90;99.90;;;;;;5096787;28;20198;-73
2022/12/18 00:50:03;;;;;;;0.20;0.20;;;1.90;99.90;;;;;;5114320;28;20199;-74
2022/12/18 00:52:28;;;;;;;4.10;1.05;;;1.90;99.90;;;;;;5114921;28;20245;-73
2022/12/18 00:54:54;;;;;;;0.50;0.50;;;1.90;99.90;;;;;;5114748;28;20223;-73
2022/12/18 00:57:20;;;;;;;0.20;0.20;;;1.80;99.90;;;;;;5096558;28;20192;-73
2022/12/18 00:59:45;;;;;;;0.40;0.40;;;1.80;99.90;;;;;;5114832;28;20210;-73
2022/12/18 01:02:12;;;;;;;0.30;0.30;;;1.80;99.90;;;;;;5114921;28;20192;-73
2022/12/18 01:04:38;;;;;;;0.30;0.30;;;1.80;99.90;;;;;;5114105;28;20207;-74
2022/12/18 01:07:04;;;;;;;0.20;0.20;;;1.80;99.90;;;;;;5114767;28;20199;-74
2022/12/18 01:09:30;;;;;;;0.28;0.28;;;1.80;99.90;;;;;;5114328;28;20563;-73
2022/12/18 01:11:56;;;;;;;0.30;0.30;;;1.80;99.90;;;;;;5114148;28;20219;-74
2022/12/18 01:14:22;;;;;;;0.35;0.35;;;1.80;99.90;;;;;;5086404;28;20208;-73
2022/12/18 01:16:48;;;;;;;0.30;0.30;;;1.80;99.90;;;;;;5094002;28;20203;-74
2022/12/18 01:19:13;;;;;;;0.40;0.40;;;1.90;99.90;;;;;;5085158;28;20195;-74
2022/12/18 01:21:39;;;;;;;0.20;0.20;;;1.80;99.90;;;;;;5114252;28;20195;-74
2022/12/18 01:24:06;;;;;;;0.30;0.30;;;1.80;99.90;;;;;;5092430;28;20204;-74
2022/12/18 01:26:31;;;;;;;0.40;0.40;;;1.80;99.90;;;;;;5093319;28;20349;-73
2022/12/18 01:28:58;;;;;;;0.30;0.30;;;1.80;99.90;;;;;;5093529;28;20220;-74
2022/12/18 01:31:29;;;;;;;0.52;0.50;;;1.80;99.90;;;;;;5093831;28;20192;-74
2022/12/18 01:33:55;;;;;;;0.30;0.30;;;1.80;99.90;;;;;;5094302;28;20619;-75
2022/12/18 01:36:29;;;;;;;0.30;0.30;;;1.80;99.90;;;;;;5093787;28;20245;-75
2022/12/18 01:38:56;;;;;;;1.88;1.25;;;1.80;99.90;;;;;;5095725;28;20647;-74
2022/12/18 01:41:25;;;;;;;0.20;0.20;;;1.80;99.90;;;;;;5114017;28;20723;-74
2022/12/18 01:43:52;;;;;;;0.20;0.20;;;1.90;99.90;;;;;;5114152;28;20188;-74
2022/12/18 01:46:20;;;;;;;0.20;0.20;;;1.80;99.90;;;;;;5113834;28;20203;-75
2022/12/18 01:48:53;;;;;;;0.20;0.20;;;1.80;99.90;;;;;;5095823;28;20654;-74
2022/12/18 01:51:18;;;;;;;0.30;0.30;;;1.90;99.90;;;;;;5113799;28;20552;-74
2022/12/18 01:53:46;;;;;;;0.50;0.50;;;1.90;99.90;;;;;;5113949;28;20184;-74
2022/12/18 01:56:15;;;;;;;0.30;0.30;;;1.90;99.90;;;;;;5113977;28;20200;-74
2022/12/18 01:58:54;;;;;;;0.40;0.40;;;1.80;99.90;;;;;;5095498;28;20214;-75
2022/12/18 02:01:23;;;;;;;0.30;0.30;;;1.80;99.90;;;;;;5115360;28;20194;-72
2022/12/18 02:03:49;;;;;;;0.22;0.22;;;1.80;99.90;;;;;;5091418;28;20199;-72
2022/12/18 02:06:35;;;;;;;0.30;0.30;;;1.70;99.90;;;;;;5092097;28;20235;-72
2022/12/18 02:09:17;;;;;;;0.30;0.30;;;1.80;99.90;;;;;;5093550;28;20752;-72
2022/12/18 02:11:49;;;;;;;0.20;0.20;;;1.70;99.90;;;;;;5092981;28;20231;-72
2022/12/18 02:14:27;;;;;;;0.40;0.40;;;1.70;99.90;;;;;;5093468;28;20198;-72
2022/12/18 02:17:15;;;;;;;0.25;0.25;;;1.80;99.90;;;;;;5094807;28;20226;-72
2022/12/18 02:19:58;;;;;;;0.32;0.32;;;1.70;99.90;;;;;;5097515;28;20225;-72
2022/12/18 02:22:39;;;;;;;0.22;0.22;;;1.70;99.90;;;;;;5101856;28;20191;-72
2022/12/18 02:25:29;;;;;;;0.20;0.20;;;1.70;99.90;;;;;;5117782;28;20206;-72
2022/12/18 02:27:59;;;;;;;0.40;0.40;;;1.70;99.90;;;;;;5117908;28;20649;-71
2022/12/18 02:30:29;;;;;;;0.30;0.30;;;1.70;99.90;;;;;;5117756;28;20191;-72
2022/12/18 02:32:57;;;;;;;0.52;0.52;;;1.80;99.90;;;;;;5117893;28;20702;-72
2022/12/18 02:35:27;;;;;;;0.20;0.20;;;1.80;99.90;;;;;;5099253;28;20208;-72
2022/12/18 02:37:54;;;;;;;0.30;0.30;;;1.80;99.90;;;;;;5099461;28;20604;-71
2022/12/18 02:40:22;;;;;;;0.22;0.22;;;1.80;99.90;;;;;;5099246;28;20199;-72
2022/12/18 02:42:48;;;;;;;0.57;0.50;;;1.80;99.90;;;;;;5098966;28;20203;-72
2022/12/18 02:45:14;;;;;;;0.20;0.20;;;1.70;99.90;;;;;;5078842;28;20249;-71
2022/12/18 02:47:45;;;;;;;0.30;0.30;;;1.70;99.90;;;;;;5103020;28;20190;-72
2022/12/18 02:50:37;;;;;;;0.30;0.30;;;1.80;99.90;;;;;;5117519;28;20191;-72
2022/12/18 02:53:28;;;;;;;0.30;0.30;;;1.80;99.90;;;;;;5099064;28;20202;-72
2022/12/18 02:55:54;;;;;;;0.30;0.30;;;1.80;99.90;;;;;;5117300;28;20264;-72
2022/12/18 02:58:55;;;;;;;0.30;0.30;;;1.80;99.90;;;;;;5116664;28;20195;-72
2022/12/18 03:01:30;;;;;;;0.30;0.30;;;1.80;99.90;;;;;;5116315;28;20690;-72
2022/12/18 03:04:01;;;;;;;0.20;0.20;;;1.80;99.90;;;;;;5117183;28;20201;-72
2022/12/18 03:06:44;;;;;;;0.30;0.30;;;1.90;99.90;;;;;;5098425;28;20250;-72
2022/12/18 03:09:16;;;;;;;0.20;0.20;;;1.90;99.90;;;;;;5117041;28;20551;-72
2022/12/18 03:14:34;;;;;;;0.20;0.20;;;1.90;99.90;;;;;;5117013;28;20324;-72
2022/12/18 03:17:03;;;;;;;0.28;0.28;;;1.90;99.90;;;;;;5098119;28;20199;-72
2022/12/18 03:19:32;;;;;;;0.20;0.20;;;1.90;99.90;;;;;;5098440;28;20203;-72
2022/12/18 03:22:03;;;;;;;0.60;0.60;;;1.90;99.90;;;;;;5116520;28;20191;-72
2022/12/18 03:24:32;;;;;;;0.20;0.20;;;1.90;99.90;;;;;;5116568;28;20202;-72
2022/12/18 03:27:02;;;;;;;0.50;0.50;;;1.80;99.90;;;;;;5098143;28;20579;-72
2022/12/18 03:29:35;;;;;;;0.30;0.30;;;1.80;99.90;;;;;;5116325;28;20274;-72
2022/12/18 03:32:30;;;;;;;0.20;0.20;;;1.90;99.90;;;;;;5116796;28;20241;-72
2022/12/18 03:35:01;;;;;;;0.20;0.20;;;1.90;99.90;;;;;;5096402;28;20682;-72
2022/12/18 03:37:27;;;;;;;0.45;0.45;;;1.90;99.90;;;;;;5111253;28;20666;-72
2022/12/18 03:39:53;;;;;;;0.25;0.25;;;1.90;99.90;;;;;;5077679;28;20200;-72
2022/12/18 03:42:25;;;;;;;0.22;0.22;;;1.90;99.90;;;;;;5095969;28;20207;-72
2022/12/18 03:45:00;;;;;;;0.30;0.30;;;1.90;99.90;;;;;;5109884;28;20221;-72
2022/12/18 03:47:33;;;;;;;0.30;0.30;;;1.90;99.90;;;;;;5116132;28;20205;-72
2022/12/18 03:50:17;;;;;;;0.28;0.28;;;1.90;99.90;;;;;;5116294;28;20199;-72
2022/12/18 03:53:02;;;;;;;0.20;0.20;;;1.90;99.90;;;;;;5115322;28;20198;-72
2022/12/18 03:55:33;;;;;;;0.20;0.20;;;1.80;99.90;;;;;;5097925;28;20679;-72
2022/12/18 03:58:01;;;;;;;1.27;1.10;;;1.80;99.90;;;;;;5097220;28;20198;-72
2022/12/18 04:00:29;;;;;;;3.10;1.75;;;1.90;99.90;;;;;;5115270;28;20200;-72
2022/12/18 04:02:56;;;;;;;0.20;0.20;;;1.90;99.90;;;;;;5104487;28;20214;-72
2022/12/18 04:05:25;;;;;;;0.75;0.65;;;1.90;99.90;;;;;;5115718;28;20195;-72
2022/12/18 04:07:52;;;;;;;0.30;0.30;;;1.90;99.90;;;;;;5115882;28;20198;-72
2022/12/18 04:10:18;;;;;;;0.30;0.30;;;2.00;99.90;;;;;;5115785;28;20592;-72
2022/12/18 04:12:44;;;;;;;0.40;0.40;;;1.90;99.90;;;;;;5093990;28;20216;-72
2022/12/18 04:15:11;;;;;;;0.35;0.35;;;1.90;99.90;;;;;;5095493;28;20207;-71
2022/12/18 04:17:38;;;;;;;0.20;0.20;;;1.90;99.90;;;;;;5095229;28;20196;-72
2022/12/18 04:20:04;;;;;;;0.30;0.30;;;1.90;99.90;;;;;;5094107;28;20203;-72
2022/12/18 04:22:30;;;;;;;0.30;0.30;;;1.90;99.90;;;;;;5095019;28;20192;-72
2022/12/18 04:24:55;;;;;;;0.22;0.22;;;1.90;99.90;;;;;;5095009;28;20271;-71
2022/12/18 04:27:21;;;;;;;0.20;0.20;;;1.90;99.90;;;;;;5094835;28;20685;-72
2022/12/18 04:29:47;;;;;;;0.30;0.30;;;1.90;99.90;;;;;;5093899;28;20206;-71
2022/12/18 04:32:13;;;;;;;0.60;0.60;;;1.90;99.90;;;;;;5095130;28;20192;-71
2022/12/18 04:34:39;;;;;;;0.30;0.30;;;1.90;99.90;;;;;;5081880;28;20208;-71
2022/12/18 04:37:04;;;;;;;0.20;0.20;;;1.90;99.90;;;;;;5074748;28;20197;-72
2022/12/18 04:39:30;;;;;;;0.30;0.30;;;1.90;99.90;;;;;;5073505;28;20193;-71
2022/12/18 04:41:56;;;;;;;3.20;1.85;;;1.90;99.90;;;;;;5094808;28;20199;-71
2022/12/18 04:44:21;;;;;;;0.22;0.22;;;1.80;99.90;;;;;;5093315;28;20289;-72
2022/12/18 04:46:47;;;;;;;0.20;0.20;;;1.80;99.90;;;;;;5094610;28;20215;-71
2022/12/18 04:49:13;;;;;;;0.30;0.30;;;1.80;99.90;;;;;;5094958;28;20211;-71
2022/12/18 04:51:39;;;;;;;0.22;0.22;;;1.80;99.90;;;;;;5094832;28;20287;-71
2022/12/18 04:54:04;;;;;;;0.20;0.20;;;1.90;99.90;;;;;;5093495;28;20192;-72
2022/12/18 04:56:31;;;;;;;0.30;0.30;;;1.90;99.90;;;;;;5093343;28;20223;-71
2022/12/18 04:58:57;;;;;;;0.20;0.20;;;1.90;99.90;;;;;;5094430;28;20200;-71
2022/12/18 05:01:23;;;;;;;0.20;0.20;;;1.90;99.90;;;;;;5094372;28;20207;-71
2022/12/18 05:03:49;;;;;;;0.40;0.40;;;1.90;99.90;;;;;;5094377;28;20185;-71
2022/12/18 05:06:14;;;;;;;0.30;0.30;;;1.90;99.90;;;;;;5094291;28;20237;-71
2022/12/18 05:08:40;;;;;;;0.20;0.20;;;1.90;99.90;;;;;;5093249;28;20203;-71
2022/12/18 05:11:09;;;;;;;0.25;0.25;;;1.90;99.90;;;;;;5099957;28;20229;-71
2022/12/18 05:13:36;;;;;;;0.40;0.40;;;1.90;99.90;;;;;;5114572;28;20666;-71
2022/12/18 05:16:02;;;;;;;0.22;0.22;;;1.90;99.90;;;;;;5096308;28;20200;-71
2022/12/18 05:18:28;;;;;;;0.30;0.30;;;1.90;99.90;;;;;;5095655;28;20665;-71
2022/12/18 05:20:55;;;;;;;0.30;0.30;;;2.00;99.90;;;;;;5114419;28;20275;-71
2022/12/18 05:23:22;;;;;;;0.30;0.30;;;2.00;99.90;;;;;;5102245;28;20573;-71
2022/12/18 05:26:00;;;;;;;0.22;0.22;;;2.00;99.90;;;;;;5075832;28;20214;-71
2022/12/18 05:28:28;;;;;;;0.20;0.20;;;2.00;99.90;;;;;;5093976;28;20587;-70
2022/12/18 05:30:59;;;;;;;0.25;0.25;;;2.00;99.90;;;;;;5106928;28;20226;-70
2022/12/18 05:33:27;;;;;;;0.30;0.30;;;2.00;99.90;;;;;;5114213;28;20192;-71
2022/12/18 05:35:54;;;;;;;0.20;0.20;;;2.00;99.90;;;;;;5114086;28;20219;-71
2022/12/18 05:38:21;;;;;;;0.20;0.20;;;2.00;99.90;;;;;;5114167;28;20681;-71
2022/12/18 05:40:48;;;;;;;1.05;0.95;;;2.00;99.90;;;;;;5114345;28;20196;-71
2022/12/18 05:43:14;;;;;;;0.40;0.40;;;2.00;99.90;;;;;;5114184;28;20702;-71
2022/12/18 05:45:41;;;;;;;0.60;0.60;;;2.00;99.90;;;;;;5113830;28;20588;-71
2022/12/18 05:48:07;;;;;;;0.20;0.20;;;2.10;99.90;;;;;;5114175;28;20198;-70
2022/12/18 05:50:37;;;;;;;0.20;0.20;;;2.00;99.90;;;;;;5113716;28;20560;-71
2022/12/18 05:53:04;;;;;;;0.20;0.20;;;2.00;99.90;;;;;;5114066;28;20650;-70
2022/12/18 05:55:34;;;;;;;0.30;0.30;;;2.00;99.90;;;;;;5095474;28;20605;-70
2022/12/18 05:58:00;;;;;;;0.57;0.57;;;2.00;99.90;;;;;;5113951;28;20183;-70
2022/12/18 06:00:25;;;;;;;0.25;0.25;;;2.00;99.90;;;;;;5095172;28;20261;-70
2022/12/18 06:02:51;;;;;;;1.75;1.42;;;2.00;99.90;;;;;;5113810;28;20235;-70
2022/12/18 06:05:17;;;;;;;0.30;0.30;;;2.00;99.90;;;;;;5113147;28;20222;-70
2022/12/18 06:07:42;;;;;;;0.25;0.25;;;2.00;99.90;;;;;;5095448;28;20227;-71
2022/12/18 06:10:08;;;;;;;0.22;0.22;;;2.00;99.90;;;;;;5113760;28;20194;-71
2022/12/18 06:12:34;;;;;;;0.20;0.20;;;2.00;99.90;;;;;;5113502;28;20227;-71
2022/12/18 06:15:00;;;;;;;0.20;0.20;;;2.00;99.90;;;;;;5113701;28;20710;-71
2022/12/18 06:17:31;;;;;;;0.20;0.20;;;2.10;99.90;;;;;;5095278;28;20195;-71
2022/12/18 06:19:57;;;;;;;0.57;0.57;;;2.10;99.90;;;;;;5095266;28;20196;-70
2022/12/18 06:22:23;;;;;;;0.47;0.47;;;2.10;99.90;;;;;;5113358;28;20202;-70
2022/12/18 06:24:49;;;;;;;0.20;0.20;;;2.10;99.90;;;;;;5113616;28;20192;-70
2022/12/18 06:27:15;;;;;;;0.30;0.30;;;2.20;99.90;;;;;;5095166;28;20256;-70
2022/12/18 06:29:41;;;;;;;0.20;0.20;;;2.20;99.90;;;;;;5113552;28;20187;-70
2022/12/18 06:32:07;;;;;;;0.28;0.28;;;2.10;99.90;;;;;;5113143;28;20239;-70
2022/12/18 06:34:33;;;;;;;0.28;0.28;;;2.10;99.90;;;;;;5095145;28;20218;-70
2022/12/18 06:36:59;;;;;;;0.38;0.38;;;2.10;99.90;;;;;;5113490;28;20206;-70
2022/12/18 06:39:27;;;;;;;2.15;1.25;;;2.10;99.90;;;;;;5112972;28;20191;-70
2022/12/18 06:41:52;;;;;;;0.30;0.30;;;2.10;99.90;;;;;;5113255;28;20203;-72
2022/12/18 06:44:18;;;;;;;0.25;0.25;;;2.10;99.90;;;;;;5111734;28;20204;-71
2022/12/18 06:46:44;;;;;;;0.30;0.30;;;2.10;99.90;;;;;;5095323;28;20268;-70
2022/12/18 06:49:10;;;;;;;0.40;0.40;;;2.10;99.90;;;;;;5095211;28;20675;-70
2022/12/18 06:51:36;;;;;;;0.40;0.40;;;2.10;99.90;;;;;;5113006;28;20191;-71
2022/12/18 06:54:02;;;;;;;0.20;0.20;;;2.10;99.90;;;;;;5113359;28;20205;-70
2022/12/18 06:56:27;;;;;;;0.30;0.30;;;2.10;99.90;;;;;;5112867;28;20250;-71
2022/12/18 06:58:54;;;;;;;0.20;0.20;;;2.10;99.90;;;;;;5113333;28;20219;-70
2022/12/18 07:01:20;;;;;;;1.65;1.00;;;2.10;99.90;;;;;;5112677;28;20598;-70
2022/12/18 07:03:46;;;;;;;0.82;0.82;;;2.10;99.90;;;;;;5116001;28;20619;-70
2022/12/18 07:06:18;;;;;;;0.20;0.20;;;2.10;99.90;;;;;;5116855;28;20287;-70
2022/12/18 07:08:45;;;;;;;0.47;0.47;;;2.10;99.90;;;;;;5117165;28;20551;-71
2022/12/18 07:11:11;;;;;;;0.30;0.30;;;2.10;99.90;;;;;;5116780;28;20282;-71
2022/12/18 07:13:37;;;;;;;0.20;0.20;;;2.20;99.90;;;;;;5098621;28;20192;-71
2022/12/18 07:16:15;;;;;;;0.47;0.47;;;2.20;99.90;;;;;;5098558;28;20206;-70
2022/12/18 07:18:41;;;;;;;0.20;0.20;;;2.10;99.90;;;;;;5116726;28;20187;-70
2022/12/18 07:21:08;;;;;;;3.40;1.95;;;2.20;99.90;;;;;;5116877;28;20224;-69
2022/12/18 07:23:35;;;;;;;0.30;0.30;;;2.20;99.90;;;;;;5098179;28;20225;-71
2022/12/18 07:26:06;;;;;;;0.20;0.20;;;2.20;99.90;;;;;;5116304;28;20228;-71
2022/12/18 07:28:33;;;;;;;0.75;0.68;;;2.20;99.90;;;;;;5116079;28;20246;-71
2022/12/18 07:31:06;;;;;;;0.20;0.20;;;2.30;99.90;;;;;;5115972;28;20231;-71
2022/12/18 07:33:33;;;;;;;0.65;0.55;;;2.30;99.90;;;;;;5116081;28;20187;-71
2022/12/18 07:36:00;;;;;;;0.20;0.20;;;2.30;99.90;;;;;;5098173;28;20199;-71
2022/12/18 07:38:26;;;;;;;0.25;0.25;;;2.30;99.90;;;;;;5116017;28;20191;-71
2022/12/18 07:40:51;;;;;;;0.20;0.20;;;2.30;99.90;;;;;;5116276;28;20287;-72
2022/12/18 07:43:17;;;;;;;0.35;0.35;;;2.30;99.90;;;;;;5116020;28;20666;-71
2022/12/18 07:45:43;;;;;;;0.30;0.30;;;2.30;99.90;;;;;;5115879;28;20207;-71
2022/12/18 07:48:10;;;;;;;0.30;0.30;;;2.30;99.90;;;;;;5097506;28;20188;-71
2022/12/18 07:50:35;;;;;;;0.30;0.30;;;2.30;99.90;;;;;;5116059;28;20262;-71
2022/12/18 07:53:04;;;;;;;0.20;0.20;;;2.30;99.90;;;;;;5115668;28;20298;-71
2022/12/18 07:55:31;;;;;;;0.20;0.20;;;2.30;99.90;;;;;;5097467;28;20632;-71
2022/12/18 07:58:00;;;;;;;0.20;0.20;;;2.30;99.90;;;;;;5115923;28;20275;-69
2022/12/18 08:00:26;;;;;;;0.50;0.50;;;2.30;99.90;;;;;;5115514;28;20287;-70
2022/12/18 08:02:51;;;;;;;0.30;0.30;;;2.30;99.90;;;;;;5114925;28;20282;-70
2022/12/18 08:05:17;;;;;;;0.30;0.30;;;2.30;99.90;;;;;;5115604;28;20204;-70
2022/12/18 08:07:43;;;;;;;0.22;0.22;;;2.30;99.90;;;;;;5115421;28;20664;-70
2022/12/18 08:10:09;;;;;;;0.20;0.20;;;2.30;99.90;;;;;;5096810;28;20199;-69
2022/12/18 08:12:35;;;;;;;0.20;0.20;;;2.30;99.90;;;;;;5114648;28;20245;-69
2022/12/18 08:15:00;;;;;;;0.20;0.20;;;2.20;99.90;;;;;;5096479;28;20191;-70
2022/12/18 08:17:26;;;;;;;0.22;0.22;;;2.20;99.90;;;;;;5115736;28;20203;-69
2022/12/18 08:19:52;;;;;;;0.20;0.20;;;2.20;99.90;;;;;;5114972;28;20268;-69
2022/12/18 08:22:17;;;;;;;0.20;0.20;;;2.20;99.90;;;;;;5114702;28;20202;-70
2022/12/18 08:24:43;;;;;;;0.20;0.20;;;2.20;99.90;;;;;;5114824;28;20194;-70
2022/12/18 08:27:09;;;;;;;0.20;0.20;;;2.20;99.90;;;;;;5114826;28;20563;-68
2022/12/18 08:29:34;;;;;;;0.20;0.20;;;2.20;99.90;;;;;;5114810;28;20187;-70
2022/12/18 08:32:00;;;;;;;0.28;0.28;;;2.20;99.90;;;;;;5115116;28;20253;-68
2022/12/18 08:34:26;;;;;;;0.20;0.20;;;2.20;99.90;;;;;;5114968;28;20187;-68
2022/12/18 08:36:52;;;;;;;0.20;0.20;;;2.30;99.90;;;;;;5115048;28;20192;-68
2022/12/18 08:39:17;;;;;;;0.20;0.20;;;2.30;99.90;;;;;;5114952;28;20244;-68
2022/12/18 08:44:37;;;;;;;0.28;0.28;;;2.30;99.90;;;;;;5096679;28;20195;-69
2022/12/18 08:44:38;;;;;;;0.20;0.20;;;2.40;99.90;;;;;;5114428;28;20282;-68
2022/12/18 08:47:05;;;;;;;0.20;0.20;;;2.30;99.90;;;;;;5096038;28;20207;-69
2022/12/18 08:49:31;;;;;;;0.20;0.20;;;2.40;99.90;;;;;;5096042;28;20653;-69
2022/12/18 08:51:57;;;;;;;0.20;0.20;;;2.40;99.90;;;;;;5114253;28;20264;-68
2022/12/18 08:54:23;;;;;;;0.20;0.20;;;2.40;99.90;;;;;;5114687;28;20195;-68
2022/12/18 08:56:49;;;;;;;0.50;0.50;;;2.40;99.90;;;;;;5114316;28;20657;-68
2022/12/18 08:59:16;;;;;;;0.20;0.20;;;2.50;99.90;;;;;;5096001;28;20196;-68
2022/12/18 09:01:42;;;;;;;0.30;0.30;;;2.60;99.90;;;;;;5095781;28;20195;-68
2022/12/18 09:04:09;;;;;;;0.20;0.20;;;2.60;99.90;;;;;;5114262;28;20711;-68
2022/12/18 09:06:35;;;;;;;1.60;1.50;;;2.60;99.90;;;;;;5113951;28;20544;-68
2022/12/18 09:09:01;;;;;;;0.25;0.25;;;2.60;99.90;;;;;;5114021;28;20223;-68
2022/12/18 09:11:28;;;;;;;0.20;0.20;;;2.60;99.90;;;;;;5113506;28;20251;-68
2022/12/18 09:13:55;;;;;;;0.20;0.20;;;2.60;99.90;;;;;;5113033;28;20195;-68
2022/12/18 09:16:21;;;;;;;0.20;0.20;;;2.70;99.90;;;;;;5096739;28;20479;-68
2022/12/18 09:18:48;;;;;;;0.25;0.25;;;2.60;99.90;;;;;;5093223;28;20558;-68
2022/12/18 09:21:16;;;;;;;0.30;0.30;;;2.70;99.90;;;;;;5097365;28;20215;-68
2022/12/18 09:23:42;;;;;;;0.20;0.20;;;2.70;99.90;;;;;;5113913;28;20569;-67
2022/12/18 09:26:08;;;;;;;0.20;0.20;;;2.70;99.90;;;;;;5113390;28;20227;-67
2022/12/18 09:28:34;;;;;;;0.43;0.43;;;2.80;99.90;;;;;;5113743;28;20188;-67
2022/12/18 09:31:05;;;;;;;0.30;0.30;;;2.80;99.90;;;;;;5095345;28;20278;-68
2022/12/18 09:33:31;;;;;;;0.30;0.30;;;2.90;99.90;;;;;;5095358;28;20191;-67
2022/12/18 09:35:57;;;;;;;0.20;0.20;;;2.90;99.90;;;;;;5095355;28;20206;-67
2022/12/18 09:38:23;;;;;;;0.10;0.10;;;2.90;99.90;;;;;;5094182;28;20253;-68
2022/12/18 09:40:56;;;;;;;0.20;0.20;;;2.90;99.90;;;;;;5113132;28;20195;-68
2022/12/18 09:43:28;;;;;;;0.40;0.40;;;2.90;99.90;;;;;;5113652;28;20669;-69
2022/12/18 09:46:02;;;;;;;0.20;0.20;;;2.90;99.90;;;;;;5113451;28;20731;-69
2022/12/18 09:48:33;;;;;;;0.20;0.20;;;2.80;99.90;;;;;;5113549;28;20414;-70
2022/12/18 09:51:05;;;;;;;0.20;0.20;;;2.80;99.90;;;;;;5113995;28;20192;-70
2022/12/18 09:53:37;;;;;;;0.20;0.20;;;2.80;99.90;;;;;;5113781;28;20551;-70
2022/12/18 09:56:05;;;;;;;0.30;0.30;;;2.90;99.90;;;;;;5095433;28;20686;-71
2022/12/18 09:58:44;;;;;;;0.20;0.20;;;2.90;99.90;;;;;;5112229;28;20222;-71
2022/12/18 10:01:22;;;;;;;0.20;0.20;;;2.90;99.90;;;;;;5113683;28;20285;-71
2022/12/18 10:03:48;;;;;;;0.32;0.32;;;3.10;99.90;;;;;;5113321;28;20658;-71
2022/12/18 10:06:38;;;;;;;0.30;0.30;;;3.10;99.90;;;;;;5113570;28;20211;-71
2022/12/18 10:09:19;;;;;;;0.20;0.20;;;3.10;99.90;;;;;;5113076;28;20615;-71
2022/12/18 10:12:11;;;;;;;0.20;0.20;;;3.20;99.90;;;;;;5103736;28;20219;-71
2022/12/18 10:15:01;;;;;;;0.20;0.20;;;3.20;99.90;;;;;;5075079;28;20200;-71
2022/12/18 10:17:51;;;;;;;0.20;0.20;;;3.10;99.90;;;;;;5096837;28;20601;-71
2022/12/18 10:20:23;;;;;;;0.10;0.10;;;3.20;99.90;;;;;;5113765;28;20203;-71
2022/12/18 10:23:01;;;;;;;0.30;0.30;;;3.10;99.90;;;;;;5113317;28;20203;-71
2022/12/18 10:25:55;;;;;;;0.20;0.20;;;3.10;99.90;;;;;;5113361;28;20192;-71
2022/12/18 10:28:23;;;;;;;0.20;0.20;;;3.00;99.90;;;;;;5107406;28;20229;-71
2022/12/18 10:30:48;;;;;;;0.30;0.30;;;3.00;99.90;;;;;;5095389;28;20182;-71
2022/12/18 10:33:21;;;;;;;1.30;1.20;;;3.10;99.90;;;;;;5113361;28;20199;-71
2022/12/18 10:35:50;;;;;;;0.20;0.20;;;3.10;99.90;;;;;;5101953;28;20541;-72
2022/12/18 10:38:16;;;;;;;0.20;0.20;;;3.10;99.90;;;;;;5097113;28;20726;-71
2022/12/18 10:41:04;;;;;;;0.20;0.20;;;3.10;99.90;;;;;;5116796;28;20199;-71
2022/12/18 10:43:31;;;;;;;0.30;0.30;;;3.20;99.90;;;;;;5116656;28;20184;-72
2022/12/18 10:46:08;;;;;;;0.20;0.20;;;3.20;99.90;;;;;;5098414;28;20223;-72
2022/12/18 10:48:40;;;;;;;0.20;0.20;;;3.10;99.90;;;;;;5116053;28;20184;-72
2022/12/18 10:51:07;;;;;;;0.40;0.40;;;3.10;99.90;;;;;;5116803;28;20187;-73
2022/12/18 10:53:34;;;;;;;0.68;0.63;;;3.20;99.90;;;;;;5117054;28;20218;-73
2022/12/18 10:56:02;;;;;;;0.63;0.63;;;3.20;99.90;;;;;;5117451;28;20232;-73
2022/12/18 10:58:33;;;;;;;0.20;0.20;;;3.30;99.90;;;;;;5098785;28;20196;-73
2022/12/18 11:01:05;;;;;;;0.30;0.30;;;3.30;99.90;;;;;;5116843;28;20286;-73
2022/12/18 11:03:35;;;;;;;0.77;0.77;;;3.40;99.90;;;;;;5117085;28;20763;-73
2022/12/18 11:06:16;;;;;;;0.20;0.20;;;3.40;99.90;;;;;;5117279;28;20242;-72
2022/12/18 11:08:44;;;;;;;0.20;0.20;;;3.40;99.90;;;;;;5101300;28;20207;-73
2022/12/18 11:11:23;;;;;;;0.20;0.20;;;3.40;99.90;;;;;;5096008;28;20216;-73
2022/12/18 11:14:15;;;;;;;0.20;0.20;;;3.40;99.90;;;;;;5101496;28;20199;-75
2022/12/18 11:16:47;;;;;;;0.20;0.20;;;3.50;99.90;;;;;;5089969;28;20204;-73
2022/12/18 11:19:32;;;;;;;0.80;0.73;;;3.50;99.90;;;;;;5116787;28;20192;-73
2022/12/18 11:21:59;;;;;;;0.30;0.30;;;3.60;99.90;;;;;;5116624;28;20191;-73
2022/12/18 11:24:33;;;;;;;0.20;0.20;;;3.60;99.90;;;;;;5098303;28;20206;-73
2022/12/18 11:27:03;;;;;;;0.20;0.20;;;3.70;99.90;;;;;;5116906;28;20191;-73
2022/12/18 11:29:37;;;;;;;0.20;0.20;;;3.60;99.90;;;;;;5116658;28;20680;-73
2022/12/18 11:32:15;;;;;;;0.20;0.20;;;3.60;99.90;;;;;;5116710;28;20658;-74
2022/12/18 11:34:50;;;;;;;0.20;0.20;;;3.50;99.90;;;;;;5116396;28;20192;-73
2022/12/18 11:37:19;;;;;;;0.20;0.20;;;3.60;99.90;;;;;;5116362;28;20251;-73
2022/12/18 11:40:00;;;;;;;0.20;0.20;;;3.60;99.90;;;;;;5116682;28;20191;-73
2022/12/18 11:42:36;;;;;;;0.20;0.20;;;3.50;99.90;;;;;;5116200;28;20252;-73
2022/12/18 11:45:10;;;;;;;0.20;0.20;;;3.50;99.90;;;;;;5116480;28;20312;-73
2022/12/18 11:48:02;;;;;;;0.40;0.40;;;3.40;99.90;;;;;;5116125;28;20609;-73
2022/12/18 11:50:33;;;;;;;0.20;0.20;;;3.40;99.90;;;;;;5116052;28;20187;-73
2022/12/18 11:53:00;;;;;;;0.22;0.22;;;3.40;99.90;;;;;;5116198;28;20188;-73
2022/12/18 11:55:44;;;;;;;0.20;0.20;;;3.30;99.90;;;;;;5115751;28;20191;-73
2022/12/18 11:58:36;;;;;;;0.30;0.30;;;3.20;99.90;;;;;;5077515;28;20690;-73
2022/12/18 12:01:27;;;;;;;0.20;0.20;;;3.30;99.90;;;;;;5095474;28;20184;-72
2022/12/18 12:04:12;;;;;;;0.20;0.20;;;3.30;99.90;;;;;;5083777;28;20191;-73
2022/12/18 12:06:46;;;;;;;0.28;0.28;;;3.40;99.90;;;;;;5115879;28;20455;-71
2022/12/18 12:09:56;;;;;;;1.75;1.10;;;3.40;99.90;;;;;;5097798;28;20191;-72
2022/12/18 12:13:03;;;;;;;0.20;0.20;;;3.30;99.90;;;;;;5032562;28;20611;-72
2022/12/18 12:16:03;;;;;;;0.20;0.20;;;3.30;99.90;;;;;;5032385;28;20227;-73
2022/12/18 12:18:47;;;;;;;0.20;0.20;;;3.20;99.90;;;;;;5032742;28;20673;-72
2022/12/18 12:21:25;;;;;;;0.30;0.30;;;3.20;99.90;;;;;;5033018;28;20677;-73
2022/12/18 12:24:18;;;;;;;0.20;0.20;;;3.20;99.90;;;;;;5036006;28;20656;-72
2022/12/18 12:26:59;;;;;;;0.40;0.40;;;3.10;99.90;;;;;;5052427;28;20749;-73
2022/12/18 12:29:43;;;;;;;0.20;0.20;;;3.00;99.90;;;;;;5025262;28;20235;-73
2022/12/18 12:32:30;;;;;;;0.20;0.20;;;3.00;99.90;;;;;;5040811;28;20201;-73
2022/12/18 12:35:16;;;;;;;0.20;0.20;;;2.90;99.90;;;;;;5050620;28;20303;-73
2022/12/18 12:37:56;;;;;;;0.30;0.30;;;2.90;99.90;;;;;;5072083;28;20188;-73
2022/12/18 12:40:26;;;;;;;0.20;0.20;;;2.90;99.90;;;;;;5072134;28;20200;-74
2022/12/18 12:43:15;;;;;;;0.20;0.20;;;2.90;99.90;;;;;;5071882;28;20254;-72
2022/12/18 12:46:08;;;;;;;0.20;0.20;;;2.90;99.90;;;;;;5083690;28;20245;-72
2022/12/18 12:48:58;;;;;;;0.15;0.15;;;2.90;99.90;;;;;;5114996;28;20259;-73
2022/12/18 12:51:36;;;;;;;0.20;0.20;;;2.80;99.90;;;;;;5114810;28;20556;-74
2022/12/18 12:54:06;;;;;;;0.20;0.20;;;2.90;99.90;;;;;;5115270;28;20658;-73
2022/12/18 12:56:42;;;;;;;8.48;1.65;;;2.90;99.90;;;;;;5114718;28;20191;-73
2022/12/18 12:59:15;;;;;;;0.10;0.10;;;2.90;99.90;;;;;;5114727;28;20248;-73
2022/12/18 13:01:58;;;;;;;0.20;0.20;;;2.90;99.90;;;;;;5094290;28;20227;-73
2022/12/18 13:04:44;;;;;;;0.20;0.20;;;3.00;99.90;;;;;;5094220;28;20196;-73
2022/12/18 13:07:27;;;;;;;0.20;0.20;;;3.00;99.90;;;;;;5106667;28;20700;-73
2022/12/18 13:10:24;;;;;;;0.13;0.13;;;3.00;99.90;;;;;;5114604;28;20198;-74
2022/12/18 13:13:01;;;;;;;0.20;0.20;;;3.00;99.90;;;;;;5114536;28;20259;-73
2022/12/18 13:15:47;;;;;;;0.30;0.30;;;3.00;99.90;;;;;;5114205;28;20190;-74
2022/12/18 13:18:17;;;;;;;0.20;0.20;;;3.00;99.90;;;;;;5114779;28;20195;-74
2022/12/18 13:20:54;;;;;;;0.35;0.35;;;2.90;99.90;;;;;;5096516;28;20241;-74
2022/12/18 13:23:26;;;;;;;0.20;0.20;;;2.80;99.90;;;;;;5114241;28;20195;-74